NZAA/AKL METAR and TAF weather

Enter ICAO airport designator
Station Type Date Time Source
NZAA METAR 2017/08/21 23:00 UTC NOAA

NZAA 212300Z AUTO 22004KT 9999 FEW025/// 12/09 Q1017 NOSIG


Station Type Date Time Source
NZAA Decoded METAR 2017/08/21 23:00 UTC NOAA

Auckland Airport, New Zealand (NZAA) 37-01S 174-48E 6M
Aug 21, 2017 - 07:00 PM EDT / 2017.08.21 2300 UTC
Wind: from the SW (220 degrees) at 5 MPH (4 KT):0
Visibility: greater than 7 mile(s):0
Sky conditions: mostly clear
Temperature: 53 F (12 C)
Dew Point: 48 F (9 C)
Relative Humidity: 81%
Pressure (altimeter): 30.03 in. Hg (1017 hPa)
ob: NZAA 212300Z AUTO 22004KT 9999 FEW025/// 12/09 Q1017 NOSIG
cycle: 23

Station Type Date Time Source
NZAA TAF 2017/08/21 18:09 UTC NOAA

TAF TAF NZAA 211707Z 2118/2218 VRB02KT CAVOK
BECMG 2123/2201 22010KT
BECMG 2209/2211 14005KT


Example: see airport list